sensor_id;sensor_type;location;lat;lon;timestamp;P1;durP1;ratioP1;P2;durP2;ratioP2
78141;SDS011;67393;52.620;13.482;2024-01-10T00:00:03;30.25;;;12.77;;
78141;SDS011;67393;52.620;13.482;2024-01-10T00:02:30;34.63;;;14.55;;
78141;SDS011;67393;52.620;13.482;2024-01-10T00:04:57;33.00;;;15.57;;
78141;SDS011;67393;52.620;13.482;2024-01-10T00:07:23;27.00;;;14.07;;
78141;SDS011;67393;52.620;13.482;2024-01-10T00:09:50;36.38;;;15.80;;
78141;SDS011;67393;52.620;13.482;2024-01-10T00:12:16;48.53;;;17.63;;
78141;SDS011;67393;52.620;13.482;2024-01-10T00:14:43;50.90;;;17.95;;
78141;SDS011;67393;52.620;13.482;2024-01-10T00:17:09;44.28;;;14.13;;
78141;SDS011;67393;52.620;13.482;2024-01-10T00:19:36;40.67;;;18.60;;
78141;SDS011;67393;52.620;13.482;2024-01-10T00:22:02;49.08;;;17.60;;
78141;SDS011;67393;52.620;13.482;2024-01-10T00:24:28;44.30;;;17.60;;
78141;SDS011;67393;52.620;13.482;2024-01-10T00:26:55;48.15;;;17.70;;
78141;SDS011;67393;52.620;13.482;2024-01-10T00:29:21;44.03;;;16.88;;
78141;SDS011;67393;52.620;13.482;2024-01-10T00:31:48;41.10;;;17.00;;
78141;SDS011;67393;52.620;13.482;2024-01-10T00:34:14;45.33;;;16.85;;
78141;SDS011;67393;52.620;13.482;2024-01-10T00:36:41;39.13;;;16.98;;
78141;SDS011;67393;52.620;13.482;2024-01-10T00:39:07;42.85;;;18.02;;
78141;SDS011;67393;52.620;13.482;2024-01-10T00:41:33;35.08;;;16.50;;
78141;SDS011;67393;52.620;13.482;2024-01-10T00:44:00;36.38;;;15.20;;
78141;SDS011;67393;52.620;13.482;2024-01-10T00:46:26;43.03;;;15.93;;
78141;SDS011;67393;52.620;13.482;2024-01-10T00:48:52;49.25;;;20.13;;
78141;SDS011;67393;52.620;13.482;2024-01-10T00:51:19;38.50;;;15.80;;
78141;SDS011;67393;52.620;13.482;2024-01-10T00:53:45;45.95;;;13.85;;
78141;SDS011;67393;52.620;13.482;2024-01-10T00:56:12;38.55;;;17.35;;
78141;SDS011;67393;52.620;13.482;2024-01-10T00:58:39;47.20;;;16.65;;
78141;SDS011;67393;52.620;13.482;2024-01-10T01:01:05;43.90;;;18.13;;
78141;SDS011;67393;52.620;13.482;2024-01-10T01:03:31;39.08;;;14.05;;
78141;SDS011;67393;52.620;13.482;2024-01-10T01:05:58;30.48;;;14.38;;
78141;SDS011;67393;52.620;13.482;2024-01-10T01:08:24;36.17;;;15.77;;
78141;SDS011;67393;52.620;13.482;2024-01-10T01:10:51;37.75;;;17.98;;
78141;SDS011;67393;52.620;13.482;2024-01-10T01:13:17;54.70;;;19.88;;
78141;SDS011;67393;52.620;13.482;2024-01-10T01:15:44;41.63;;;18.48;;
78141;SDS011;67393;52.620;13.482;2024-01-10T01:18:10;45.42;;;17.35;;
78141;SDS011;67393;52.620;13.482;2024-01-10T01:20:36;46.38;;;20.65;;
78141;SDS011;67393;52.620;13.482;2024-01-10T01:23:03;38.72;;;16.67;;
78141;SDS011;67393;52.620;13.482;2024-01-10T01:25:29;40.05;;;16.83;;
78141;SDS011;67393;52.620;13.482;2024-01-10T01:27:56;52.05;;;21.00;;
78141;SDS011;67393;52.620;13.482;2024-01-10T01:30:22;59.28;;;19.50;;
78141;SDS011;67393;52.620;13.482;2024-01-10T01:32:49;41.80;;;17.27;;
78141;SDS011;67393;52.620;13.482;2024-01-10T01:35:15;44.30;;;17.23;;
78141;SDS011;67393;52.620;13.482;2024-01-10T01:37:42;50.90;;;17.48;;
78141;SDS011;67393;52.620;13.482;2024-01-10T01:40:08;43.95;;;17.63;;
78141;SDS011;67393;52.620;13.482;2024-01-10T01:42:35;59.25;;;19.85;;
78141;SDS011;67393;52.620;13.482;2024-01-10T01:45:01;49.30;;;19.65;;
78141;SDS011;67393;52.620;13.482;2024-01-10T01:47:27;61.53;;;21.75;;
78141;SDS011;67393;52.620;13.482;2024-01-10T01:49:54;62.28;;;18.70;;
78141;SDS011;67393;52.620;13.482;2024-01-10T01:52:20;56.13;;;19.23;;
78141;SDS011;67393;52.620;13.482;2024-01-10T01:54:47;53.42;;;17.85;;
78141;SDS011;67393;52.620;13.482;2024-01-10T01:57:14;53.30;;;17.08;;
78141;SDS011;67393;52.620;13.482;2024-01-10T01:59:40;46.83;;;19.52;;
78141;SDS011;67393;52.620;13.482;2024-01-10T02:02:07;48.35;;;19.45;;
78141;SDS011;67393;52.620;13.482;2024-01-10T02:04:34;50.42;;;18.10;;
78141;SDS011;67393;52.620;13.482;2024-01-10T02:07:02;54.15;;;21.75;;
78141;SDS011;67393;52.620;13.482;2024-01-10T02:09:28;60.60;;;19.98;;
78141;SDS011;67393;52.620;13.482;2024-01-10T02:11:55;52.05;;;17.75;;
78141;SDS011;67393;52.620;13.482;2024-01-10T02:14:21;46.97;;;19.65;;
78141;SDS011;67393;52.620;13.482;2024-01-10T02:16:48;63.67;;;20.38;;
78141;SDS011;67393;52.620;13.482;2024-01-10T02:19:22;48.78;;;20.52;;
78141;SDS011;67393;52.620;13.482;2024-01-10T02:21:49;49.80;;;18.02;;
78141;SDS011;67393;52.620;13.482;2024-01-10T02:24:16;55.08;;;19.20;;
78141;SDS011;67393;52.620;13.482;2024-01-10T02:26:43;60.85;;;21.48;;
78141;SDS011;67393;52.620;13.482;2024-01-10T02:29:09;62.72;;;18.98;;
78141;SDS011;67393;52.620;13.482;2024-01-10T02:31:36;55.08;;;19.77;;
78141;SDS011;67393;52.620;13.482;2024-01-10T02:34:02;54.97;;;21.63;;
78141;SDS011;67393;52.620;13.482;2024-01-10T02:36:29;55.47;;;19.73;;
78141;SDS011;67393;52.620;13.482;2024-01-10T02:38:55;66.68;;;22.33;;
78141;SDS011;67393;52.620;13.482;2024-01-10T02:41:21;52.42;;;18.45;;
78141;SDS011;67393;52.620;13.482;2024-01-10T02:43:48;52.05;;;19.52;;
78141;SDS011;67393;52.620;13.482;2024-01-10T02:46:14;47.17;;;16.75;;
78141;SDS011;67393;52.620;13.482;2024-01-10T02:48:40;45.47;;;17.60;;
78141;SDS011;67393;52.620;13.482;2024-01-10T02:51:07;42.90;;;18.25;;
78141;SDS011;67393;52.620;13.482;2024-01-10T02:53:33;39.33;;;18.52;;
78141;SDS011;67393;52.620;13.482;2024-01-10T02:56:00;54.17;;;21.25;;
78141;SDS011;67393;52.620;13.482;2024-01-10T02:58:26;55.97;;;18.60;;
78141;SDS011;67393;52.620;13.482;2024-01-10T03:00:52;54.55;;;18.15;;
78141;SDS011;67393;52.620;13.482;2024-01-10T03:03:19;50.05;;;18.67;;
78141;SDS011;67393;52.620;13.482;2024-01-10T03:05:45;39.75;;;17.98;;
78141;SDS011;67393;52.620;13.482;2024-01-10T03:08:12;35.25;;;17.67;;
78141;SDS011;67393;52.620;13.482;2024-01-10T03:10:38;59.63;;;20.30;;
78141;SDS011;67393;52.620;13.482;2024-01-10T03:13:05;55.45;;;20.65;;
78141;SDS011;67393;52.620;13.482;2024-01-10T03:15:31;51.03;;;18.77;;
78141;SDS011;67393;52.620;13.482;2024-01-10T03:17:57;44.90;;;19.20;;
78141;SDS011;67393;52.620;13.482;2024-01-10T03:20:24;44.08;;;19.58;;
78141;SDS011;67393;52.620;13.482;2024-01-10T03:22:50;47.50;;;18.10;;
78141;SDS011;67393;52.620;13.482;2024-01-10T03:25:17;54.08;;;20.13;;
78141;SDS011;67393;52.620;13.482;2024-01-10T03:27:43;58.03;;;17.52;;
78141;SDS011;67393;52.620;13.482;2024-01-10T03:30:09;56.95;;;22.65;;
78141;SDS011;67393;52.620;13.482;2024-01-10T03:32:36;58.45;;;19.60;;
78141;SDS011;67393;52.620;13.482;2024-01-10T03:35:03;55.85;;;21.50;;
78141;SDS011;67393;52.620;13.482;2024-01-10T03:37:30;50.20;;;22.02;;
78141;SDS011;67393;52.620;13.482;2024-01-10T03:39:56;52.28;;;20.27;;
78141;SDS011;67393;52.620;13.482;2024-01-10T03:42:23;44.55;;;19.83;;
78141;SDS011;67393;52.620;13.482;2024-01-10T03:44:49;47.15;;;19.92;;
78141;SDS011;67393;52.620;13.482;2024-01-10T03:47:15;57.10;;;19.10;;
78141;SDS011;67393;52.620;13.482;2024-01-10T03:49:42;66.15;;;20.75;;
78141;SDS011;67393;52.620;13.482;2024-01-10T03:52:08;45.42;;;16.98;;
78141;SDS011;67393;52.620;13.482;2024-01-10T03:54:35;46.88;;;18.52;;
78141;SDS011;67393;52.620;13.482;2024-01-10T03:57:01;57.00;;;16.95;;
78141;SDS011;67393;52.620;13.482;2024-01-10T03:59:27;46.97;;;18.65;;
78141;SDS011;67393;52.620;13.482;2024-01-10T04:01:54;58.53;;;18.95;;
78141;SDS011;67393;52.620;13.482;2024-01-10T04:04:20;46.28;;;19.50;;
78141;SDS011;67393;52.620;13.482;2024-01-10T04:06:46;46.20;;;18.77;;
78141;SDS011;67393;52.620;13.482;2024-01-10T04:09:13;52.60;;;19.55;;
78141;SDS011;67393;52.620;13.482;2024-01-10T04:11:39;47.15;;;18.38;;
78141;SDS011;67393;52.620;13.482;2024-01-10T04:14:05;45.88;;;17.65;;
78141;SDS011;67393;52.620;13.482;2024-01-10T04:16:32;51.47;;;17.83;;
78141;SDS011;67393;52.620;13.482;2024-01-10T04:18:58;44.80;;;18.95;;
78141;SDS011;67393;52.620;13.482;2024-01-10T04:21:25;54.65;;;20.63;;
78141;SDS011;67393;52.620;13.482;2024-01-10T04:23:51;46.25;;;18.42;;
78141;SDS011;67393;52.620;13.482;2024-01-10T04:26:18;46.85;;;19.70;;
78141;SDS011;67393;52.620;13.482;2024-01-10T04:28:44;52.05;;;19.33;;
78141;SDS011;67393;52.620;13.482;2024-01-10T04:31:10;47.72;;;18.58;;
78141;SDS011;67393;52.620;13.482;2024-01-10T04:33:37;51.13;;;20.17;;
78141;SDS011;67393;52.620;13.482;2024-01-10T04:36:03;47.15;;;19.50;;
78141;SDS011;67393;52.620;13.482;2024-01-10T04:38:30;62.97;;;22.33;;
78141;SDS011;67393;52.620;13.482;2024-01-10T04:40:56;54.85;;;20.20;;
78141;SDS011;67393;52.620;13.482;2024-01-10T04:43:23;48.97;;;17.92;;
78141;SDS011;67393;52.620;13.482;2024-01-10T04:45:49;46.38;;;17.73;;
78141;SDS011;67393;52.620;13.482;2024-01-10T04:48:15;49.58;;;18.92;;
78141;SDS011;67393;52.620;13.482;2024-01-10T04:50:42;43.17;;;17.35;;
78141;SDS011;67393;52.620;13.482;2024-01-10T04:53:08;50.45;;;21.25;;
78141;SDS011;67393;52.620;13.482;2024-01-10T04:55:35;58.42;;;19.25;;
78141;SDS011;67393;52.620;13.482;2024-01-10T04:58:01;52.88;;;19.65;;
78141;SDS011;67393;52.620;13.482;2024-01-10T05:00:27;62.25;;;21.85;;
78141;SDS011;67393;52.620;13.482;2024-01-10T05:02:54;40.47;;;14.75;;
78141;SDS011;67393;52.620;13.482;2024-01-10T05:05:20;55.63;;;18.90;;
78141;SDS011;67393;52.620;13.482;2024-01-10T05:07:47;66.35;;;20.80;;
78141;SDS011;67393;52.620;13.482;2024-01-10T05:10:13;49.22;;;18.73;;
78141;SDS011;67393;52.620;13.482;2024-01-10T05:12:40;43.00;;;17.08;;
78141;SDS011;67393;52.620;13.482;2024-01-10T05:15:06;39.50;;;14.95;;
78141;SDS011;67393;52.620;13.482;2024-01-10T05:17:33;48.35;;;19.80;;
78141;SDS011;67393;52.620;13.482;2024-01-10T05:19:59;44.03;;;18.80;;
78141;SDS011;67393;52.620;13.482;2024-01-10T05:22:26;59.33;;;20.00;;
78141;SDS011;67393;52.620;13.482;2024-01-10T05:24:52;56.63;;;18.92;;
78141;SDS011;67393;52.620;13.482;2024-01-10T05:27:18;42.30;;;18.48;;
78141;SDS011;67393;52.620;13.482;2024-01-10T05:29:45;48.28;;;19.98;;
78141;SDS011;67393;52.620;13.482;2024-01-10T05:32:11;43.65;;;18.90;;
78141;SDS011;67393;52.620;13.482;2024-01-10T05:34:38;45.83;;;19.38;;
78141;SDS011;67393;52.620;13.482;2024-01-10T05:37:04;61.05;;;21.45;;
78141;SDS011;67393;52.620;13.482;2024-01-10T05:39:30;62.95;;;21.20;;
78141;SDS011;67393;52.620;13.482;2024-01-10T05:41:58;51.78;;;20.75;;
78141;SDS011;67393;52.620;13.482;2024-01-10T05:44:24;49.80;;;20.45;;
78141;SDS011;67393;52.620;13.482;2024-01-10T05:46:50;38.65;;;15.88;;
78141;SDS011;67393;52.620;13.482;2024-01-10T05:49:17;55.05;;;18.35;;
78141;SDS011;67393;52.620;13.482;2024-01-10T05:51:43;54.92;;;20.25;;
78141;SDS011;67393;52.620;13.482;2024-01-10T05:54:10;61.72;;;21.35;;
78141;SDS011;67393;52.620;13.482;2024-01-10T05:56:36;53.95;;;20.05;;
78141;SDS011;67393;52.620;13.482;2024-01-10T05:59:02;57.55;;;21.60;;
78141;SDS011;67393;52.620;13.482;2024-01-10T06:01:29;51.53;;;19.85;;
78141;SDS011;67393;52.620;13.482;2024-01-10T06:03:55;42.90;;;17.00;;
78141;SDS011;67393;52.620;13.482;2024-01-10T06:06:22;45.53;;;17.63;;
78141;SDS011;67393;52.620;13.482;2024-01-10T06:08:48;48.80;;;18.80;;
78141;SDS011;67393;52.620;13.482;2024-01-10T06:11:15;58.00;;;22.45;;
78141;SDS011;67393;52.620;13.482;2024-01-10T06:13:41;54.72;;;22.80;;
78141;SDS011;67393;52.620;13.482;2024-01-10T06:16:19;47.13;;;19.85;;
78141;SDS011;67393;52.620;13.482;2024-01-10T06:18:46;54.47;;;21.60;;
78141;SDS011;67393;52.620;13.482;2024-01-10T06:21:13;50.03;;;20.35;;
78141;SDS011;67393;52.620;13.482;2024-01-10T06:23:39;55.33;;;20.73;;
78141;SDS011;67393;52.620;13.482;2024-01-10T06:26:05;51.85;;;19.92;;
78141;SDS011;67393;52.620;13.482;2024-01-10T06:28:32;58.03;;;22.90;;
78141;SDS011;67393;52.620;13.482;2024-01-10T06:30:58;56.25;;;22.90;;
78141;SDS011;67393;52.620;13.482;2024-01-10T06:33:24;46.45;;;19.50;;
78141;SDS011;67393;52.620;13.482;2024-01-10T06:35:51;50.75;;;19.17;;
78141;SDS011;67393;52.620;13.482;2024-01-10T06:38:17;43.08;;;19.80;;
78141;SDS011;67393;52.620;13.482;2024-01-10T06:40:44;47.45;;;19.27;;
78141;SDS011;67393;52.620;13.482;2024-01-10T06:43:10;38.67;;;17.58;;
78141;SDS011;67393;52.620;13.482;2024-01-10T06:45:37;56.17;;;18.02;;
78141;SDS011;67393;52.620;13.482;2024-01-10T06:48:03;69.75;;;23.40;;
78141;SDS011;67393;52.620;13.482;2024-01-10T06:50:30;56.28;;;21.48;;
78141;SDS011;67393;52.620;13.482;2024-01-10T06:52:56;63.17;;;25.52;;
78141;SDS011;67393;52.620;13.482;2024-01-10T06:55:23;42.53;;;19.08;;
78141;SDS011;67393;52.620;13.482;2024-01-10T06:57:49;58.25;;;21.85;;
78141;SDS011;67393;52.620;13.482;2024-01-10T07:00:16;48.22;;;21.27;;
78141;SDS011;67393;52.620;13.482;2024-01-10T07:02:43;50.10;;;17.85;;
78141;SDS011;67393;52.620;13.482;2024-01-10T07:05:09;60.47;;;20.33;;
78141;SDS011;67393;52.620;13.482;2024-01-10T07:07:36;51.08;;;19.35;;
78141;SDS011;67393;52.620;13.482;2024-01-10T07:10:03;61.67;;;20.92;;
78141;SDS011;67393;52.620;13.482;2024-01-10T07:12:29;58.50;;;21.80;;
78141;SDS011;67393;52.620;13.482;2024-01-10T07:14:56;70.97;;;24.02;;
78141;SDS011;67393;52.620;13.482;2024-01-10T07:17:22;50.17;;;18.77;;
78141;SDS011;67393;52.620;13.482;2024-01-10T07:19:49;49.28;;;22.00;;
78141;SDS011;67393;52.620;13.482;2024-01-10T07:22:16;48.95;;;21.65;;
78141;SDS011;67393;52.620;13.482;2024-01-10T07:24:42;58.95;;;19.92;;
78141;SDS011;67393;52.620;13.482;2024-01-10T07:27:08;45.22;;;18.95;;
78141;SDS011;67393;52.620;13.482;2024-01-10T07:29:35;50.30;;;18.35;;
78141;SDS011;67393;52.620;13.482;2024-01-10T07:32:01;60.70;;;18.77;;
78141;SDS011;67393;52.620;13.482;2024-01-10T07:34:28;52.10;;;20.48;;
78141;SDS011;67393;52.620;13.482;2024-01-10T07:36:54;61.40;;;21.80;;
78141;SDS011;67393;52.620;13.482;2024-01-10T07:39:21;59.38;;;21.02;;
78141;SDS011;67393;52.620;13.482;2024-01-10T07:41:47;58.35;;;19.55;;
78141;SDS011;67393;52.620;13.482;2024-01-10T07:44:14;41.42;;;17.92;;
78141;SDS011;67393;52.620;13.482;2024-01-10T07:46:40;44.53;;;17.05;;
78141;SDS011;67393;52.620;13.482;2024-01-10T07:49:06;47.97;;;18.17;;
78141;SDS011;67393;52.620;13.482;2024-01-10T07:51:33;46.60;;;17.35;;
78141;SDS011;67393;52.620;13.482;2024-01-10T07:53:59;55.10;;;19.38;;
78141;SDS011;67393;52.620;13.482;2024-01-10T07:56:26;45.78;;;16.33;;
78141;SDS011;67393;52.620;13.482;2024-01-10T07:58:52;46.60;;;16.52;;
78141;SDS011;67393;52.620;13.482;2024-01-10T08:01:19;49.40;;;20.95;;
78141;SDS011;67393;52.620;13.482;2024-01-10T08:03:45;56.75;;;20.80;;
78141;SDS011;67393;52.620;13.482;2024-01-10T08:06:12;52.72;;;20.52;;
78141;SDS011;67393;52.620;13.482;2024-01-10T08:08:51;61.17;;;22.95;;
78141;SDS011;67393;52.620;13.482;2024-01-10T08:11:18;51.47;;;20.20;;
78141;SDS011;67393;52.620;13.482;2024-01-10T08:13:44;54.85;;;19.48;;
78141;SDS011;67393;52.620;13.482;2024-01-10T08:16:11;59.08;;;21.52;;
78141;SDS011;67393;52.620;13.482;2024-01-10T08:18:40;54.75;;;21.25;;
78141;SDS011;67393;52.620;13.482;2024-01-10T08:21:06;65.25;;;22.60;;
78141;SDS011;67393;52.620;13.482;2024-01-10T08:23:33;54.72;;;23.40;;
78141;SDS011;67393;52.620;13.482;2024-01-10T08:25:59;47.50;;;18.90;;
78141;SDS011;67393;52.620;13.482;2024-01-10T08:28:26;64.85;;;23.48;;
78141;SDS011;67393;52.620;13.482;2024-01-10T08:30:52;59.90;;;23.95;;
78141;SDS011;67393;52.620;13.482;2024-01-10T08:33:25;52.20;;;20.05;;
78141;SDS011;67393;52.620;13.482;2024-01-10T08:35:51;53.25;;;20.52;;
78141;SDS011;67393;52.620;13.482;2024-01-10T08:38:18;57.63;;;20.35;;
78141;SDS011;67393;52.620;13.482;2024-01-10T08:40:44;60.47;;;23.40;;
78141;SDS011;67393;52.620;13.482;2024-01-10T08:43:10;54.83;;;19.10;;
78141;SDS011;67393;52.620;13.482;2024-01-10T08:45:37;53.75;;;22.13;;
78141;SDS011;67393;52.620;13.482;2024-01-10T08:48:03;48.45;;;19.55;;
78141;SDS011;67393;52.620;13.482;2024-01-10T08:50:33;59.67;;;22.30;;
78141;SDS011;67393;52.620;13.482;2024-01-10T08:52:59;61.38;;;23.65;;
78141;SDS011;67393;52.620;13.482;2024-01-10T08:55:26;74.25;;;25.73;;
78141;SDS011;67393;52.620;13.482;2024-01-10T08:57:52;75.03;;;26.02;;
78141;SDS011;67393;52.620;13.482;2024-01-10T09:00:19;60.10;;;25.27;;
78141;SDS011;67393;52.620;13.482;2024-01-10T09:02:45;66.68;;;23.60;;
78141;SDS011;67393;52.620;13.482;2024-01-10T09:05:11;65.78;;;24.63;;
78141;SDS011;67393;52.620;13.482;2024-01-10T09:07:38;61.83;;;25.30;;
78141;SDS011;67393;52.620;13.482;2024-01-10T09:10:04;69.35;;;24.23;;
78141;SDS011;67393;52.620;13.482;2024-01-10T09:12:31;58.53;;;23.45;;
78141;SDS011;67393;52.620;13.482;2024-01-10T09:14:57;54.30;;;22.67;;
78141;SDS011;67393;52.620;13.482;2024-01-10T09:17:24;68.75;;;25.85;;
78141;SDS011;67393;52.620;13.482;2024-01-10T09:19:50;55.90;;;21.55;;
78141;SDS011;67393;52.620;13.482;2024-01-10T09:22:17;50.38;;;22.80;;
78141;SDS011;67393;52.620;13.482;2024-01-10T09:24:43;58.72;;;20.33;;
78141;SDS011;67393;52.620;13.482;2024-01-10T09:27:09;61.08;;;21.17;;
78141;SDS011;67393;52.620;13.482;2024-01-10T09:29:36;60.47;;;22.25;;
78141;SDS011;67393;52.620;13.482;2024-01-10T09:32:02;62.03;;;23.73;;
78141;SDS011;67393;52.620;13.482;2024-01-10T09:34:29;55.08;;;19.33;;
78141;SDS011;67393;52.620;13.482;2024-01-10T09:36:56;67.82;;;28.05;;
78141;SDS011;67393;52.620;13.482;2024-01-10T09:39:22;54.65;;;23.23;;
78141;SDS011;67393;52.620;13.482;2024-01-10T09:41:49;62.75;;;22.27;;
78141;SDS011;67393;52.620;13.482;2024-01-10T09:44:16;65.82;;;24.35;;
78141;SDS011;67393;52.620;13.482;2024-01-10T09:46:45;60.42;;;23.15;;
78141;SDS011;67393;52.620;13.482;2024-01-10T09:49:14;64.97;;;23.67;;
78141;SDS011;67393;52.620;13.482;2024-01-10T09:51:40;75.43;;;26.45;;
78141;SDS011;67393;52.620;13.482;2024-01-10T09:54:07;58.60;;;23.15;;
78141;SDS011;67393;52.620;13.482;2024-01-10T09:56:33;59.58;;;21.70;;
78141;SDS011;67393;52.620;13.482;2024-01-10T09:59:01;61.13;;;23.70;;
78141;SDS011;67393;52.620;13.482;2024-01-10T10:01:28;50.28;;;20.40;;
78141;SDS011;67393;52.620;13.482;2024-01-10T10:03:54;54.47;;;23.13;;
78141;SDS011;67393;52.620;13.482;2024-01-10T10:08:49;47.10;;;18.45;;
78141;SDS011;67393;52.620;13.482;2024-01-10T10:11:15;51.10;;;18.83;;
78141;SDS011;67393;52.620;13.482;2024-01-10T10:13:42;42.53;;;18.05;;
78141;SDS011;67393;52.620;13.482;2024-01-10T10:16:08;57.45;;;21.35;;
78141;SDS011;67393;52.620;13.482;2024-01-10T10:18:35;65.40;;;18.83;;
78141;SDS011;67393;52.620;13.482;2024-01-10T10:21:13;56.55;;;20.85;;
78141;SDS011;67393;52.620;13.482;2024-01-10T10:23:41;43.03;;;16.10;;
78141;SDS011;67393;52.620;13.482;2024-01-10T10:26:12;53.78;;;19.27;;
78141;SDS011;67393;52.620;13.482;2024-01-10T10:28:40;58.30;;;20.80;;
78141;SDS011;67393;52.620;13.482;2024-01-10T10:31:07;51.63;;;21.15;;
78141;SDS011;67393;52.620;13.482;2024-01-10T10:33:33;47.90;;;17.20;;
78141;SDS011;67393;52.620;13.482;2024-01-10T10:36:00;49.28;;;17.92;;
78141;SDS011;67393;52.620;13.482;2024-01-10T10:38:26;51.28;;;17.92;;
78141;SDS011;67393;52.620;13.482;2024-01-10T10:40:53;47.13;;;17.98;;
78141;SDS011;67393;52.620;13.482;2024-01-10T10:43:19;44.70;;;16.63;;
78141;SDS011;67393;52.620;13.482;2024-01-10T10:45:48;47.42;;;18.10;;
78141;SDS011;67393;52.620;13.482;2024-01-10T10:48:16;46.25;;;19.05;;
78141;SDS011;67393;52.620;13.482;2024-01-10T10:50:46;44.80;;;18.02;;
78141;SDS011;67393;52.620;13.482;2024-01-10T10:53:36;43.85;;;17.80;;
78141;SDS011;67393;52.620;13.482;2024-01-10T10:56:04;49.17;;;19.42;;
78141;SDS011;67393;52.620;13.482;2024-01-10T10:58:37;47.22;;;18.90;;
78141;SDS011;67393;52.620;13.482;2024-01-10T11:01:06;49.28;;;17.45;;
78141;SDS011;67393;52.620;13.482;2024-01-10T11:03:34;46.33;;;18.27;;
78141;SDS011;67393;52.620;13.482;2024-01-10T11:08:30;41.28;;;14.57;;
78141;SDS011;67393;52.620;13.482;2024-01-10T11:14:17;46.85;;;16.63;;
78141;SDS011;67393;52.620;13.482;2024-01-10T11:20:07;44.58;;;17.75;;
78141;SDS011;67393;52.620;13.482;2024-01-10T11:25:28;43.00;;;16.20;;
78141;SDS011;67393;52.620;13.482;2024-01-10T11:27:55;40.03;;;17.20;;
78141;SDS011;67393;52.620;13.482;2024-01-10T11:30:30;37.67;;;15.07;;
78141;SDS011;67393;52.620;13.482;2024-01-10T11:33:45;34.63;;;14.63;;
78141;SDS011;67393;52.620;13.482;2024-01-10T11:38:32;42.90;;;14.07;;
78141;SDS011;67393;52.620;13.482;2024-01-10T11:40:58;30.40;;;13.25;;
78141;SDS011;67393;52.620;13.482;2024-01-10T11:45:55;35.30;;;14.82;;
78141;SDS011;67393;52.620;13.482;2024-01-10T11:48:26;30.13;;;13.18;;
78141;SDS011;67393;52.620;13.482;2024-01-10T11:50:57;28.90;;;12.43;;
78141;SDS011;67393;52.620;13.482;2024-01-10T11:56:09;41.72;;;14.02;;
78141;SDS011;67393;52.620;13.482;2024-01-10T11:59:22;33.78;;;14.30;;
78141;SDS011;67393;52.620;13.482;2024-01-10T12:01:32;39.72;;;15.27;;
78141;SDS011;67393;52.620;13.482;2024-01-10T12:03:59;37.90;;;15.75;;
78141;SDS011;67393;52.620;13.482;2024-01-10T12:06:40;35.95;;;17.25;;
78141;SDS011;67393;52.620;13.482;2024-01-10T12:09:06;33.13;;;13.75;;
78141;SDS011;67393;52.620;13.482;2024-01-10T12:11:33;42.13;;;16.52;;
78141;SDS011;67393;52.620;13.482;2024-01-10T12:13:59;46.20;;;15.95;;
78141;SDS011;67393;52.620;13.482;2024-01-10T12:16:26;40.72;;;15.65;;
78141;SDS011;67393;52.620;13.482;2024-01-10T12:18:52;38.92;;;16.60;;
78141;SDS011;67393;52.620;13.482;2024-01-10T12:21:19;36.67;;;15.65;;
78141;SDS011;67393;52.620;13.482;2024-01-10T12:23:45;43.65;;;17.80;;
78141;SDS011;67393;52.620;13.482;2024-01-10T12:26:12;41.42;;;15.57;;
78141;SDS011;67393;52.620;13.482;2024-01-10T12:28:39;41.90;;;16.17;;
78141;SDS011;67393;52.620;13.482;2024-01-10T12:31:06;36.80;;;15.52;;
78141;SDS011;67393;52.620;13.482;2024-01-10T12:33:32;39.88;;;16.10;;
78141;SDS011;67393;52.620;13.482;2024-01-10T12:36:09;31.98;;;13.85;;
78141;SDS011;67393;52.620;13.482;2024-01-10T12:38:38;46.42;;;16.55;;
78141;SDS011;67393;52.620;13.482;2024-01-10T12:41:04;32.80;;;15.27;;
78141;SDS011;67393;52.620;13.482;2024-01-10T12:43:31;45.47;;;17.35;;
78141;SDS011;67393;52.620;13.482;2024-01-10T12:46:08;37.28;;;16.45;;
78141;SDS011;67393;52.620;13.482;2024-01-10T12:48:36;36.78;;;15.45;;
78141;SDS011;67393;52.620;13.482;2024-01-10T12:51:04;39.92;;;17.25;;
78141;SDS011;67393;52.620;13.482;2024-01-10T12:53:30;44.55;;;17.27;;
78141;SDS011;67393;52.620;13.482;2024-01-10T12:55:57;31.02;;;15.82;;
78141;SDS011;67393;52.620;13.482;2024-01-10T12:58:24;36.30;;;14.73;;
78141;SDS011;67393;52.620;13.482;2024-01-10T13:00:50;36.15;;;15.00;;
78141;SDS011;67393;52.620;13.482;2024-01-10T13:03:17;33.67;;;14.35;;
78141;SDS011;67393;52.620;13.482;2024-01-10T13:05:43;37.55;;;15.88;;
78141;SDS011;67393;52.620;13.482;2024-01-10T13:08:10;37.63;;;15.13;;
78141;SDS011;67393;52.620;13.482;2024-01-10T13:10:37;37.75;;;15.25;;
78141;SDS011;67393;52.620;13.482;2024-01-10T13:13:04;39.60;;;14.98;;
78141;SDS011;67393;52.620;13.482;2024-01-10T13:15:31;43.20;;;15.43;;
78141;SDS011;67393;52.620;13.482;2024-01-10T13:17:57;34.58;;;14.38;;
78141;SDS011;67393;52.620;13.482;2024-01-10T13:20:24;41.35;;;15.60;;
78141;SDS011;67393;52.620;13.482;2024-01-10T13:22:51;34.80;;;13.75;;
78141;SDS011;67393;52.620;13.482;2024-01-10T13:25:17;42.45;;;15.57;;
78141;SDS011;67393;52.620;13.482;2024-01-10T13:27:44;37.72;;;15.15;;
78141;SDS011;67393;52.620;13.482;2024-01-10T13:30:10;35.72;;;12.98;;
78141;SDS011;67393;52.620;13.482;2024-01-10T13:32:37;38.78;;;14.80;;
78141;SDS011;67393;52.620;13.482;2024-01-10T13:35:04;40.70;;;14.43;;
78141;SDS011;67393;52.620;13.482;2024-01-10T13:37:32;37.05;;;13.98;;
78141;SDS011;67393;52.620;13.482;2024-01-10T13:39:58;35.33;;;13.32;;
78141;SDS011;67393;52.620;13.482;2024-01-10T13:42:24;33.85;;;13.40;;
78141;SDS011;67393;52.620;13.482;2024-01-10T13:44:51;37.35;;;13.30;;
78141;SDS011;67393;52.620;13.482;2024-01-10T13:47:17;34.28;;;14.77;;
78141;SDS011;67393;52.620;13.482;2024-01-10T13:49:44;33.95;;;12.32;;
78141;SDS011;67393;52.620;13.482;2024-01-10T13:52:10;33.25;;;14.40;;
78141;SDS011;67393;52.620;13.482;2024-01-10T13:54:37;33.15;;;14.70;;
78141;SDS011;67393;52.620;13.482;2024-01-10T13:57:03;35.83;;;13.32;;
78141;SDS011;67393;52.620;13.482;2024-01-10T13:59:30;37.30;;;14.23;;
78141;SDS011;67393;52.620;13.482;2024-01-10T14:01:56;44.60;;;16.05;;
78141;SDS011;67393;52.620;13.482;2024-01-10T14:04:23;41.08;;;14.90;;
78141;SDS011;67393;52.620;13.482;2024-01-10T14:06:49;44.53;;;14.93;;
78141;SDS011;67393;52.620;13.482;2024-01-10T14:09:15;33.85;;;14.32;;
78141;SDS011;67393;52.620;13.482;2024-01-10T14:11:42;39.25;;;13.85;;
78141;SDS011;67393;52.620;13.482;2024-01-10T14:14:08;28.92;;;12.55;;
78141;SDS011;67393;52.620;13.482;2024-01-10T14:16:35;36.63;;;13.80;;
78141;SDS011;67393;52.620;13.482;2024-01-10T14:19:01;40.92;;;17.00;;
78141;SDS011;67393;52.620;13.482;2024-01-10T14:21:28;42.25;;;14.65;;
78141;SDS011;67393;52.620;13.482;2024-01-10T14:23:54;39.35;;;15.73;;
78141;SDS011;67393;52.620;13.482;2024-01-10T14:26:21;37.75;;;15.23;;
78141;SDS011;67393;52.620;13.482;2024-01-10T14:28:47;41.63;;;18.23;;